Summit, Pennsylvania
Current Conditions -  °F | °C
As of 6:56 AM on Friday 19 Dec 2014 (Local Time) from KELZ Reporting Station
Unknown Precip Unknown Precip  
Wind Chill: 13°   Ceiling: 700
Heat Index: 24°   Visibility: 10mi
Dew Point: 20°   Wind: 12mph
Humidity: 84%   Direction: 310°NW
Pressure: 30.03"   Gusts: NA
Location:  41.7605°N, 77.9728°W
Report Text: KELZ 191156Z AUTO 31010KT 10SM UP OVC007 M04/M07 A3003 RMK AO2 UPB52 SLP197 P0000 60000 I6002 T10441067 11033 21044 53010
Loading
Personal Weather Stations






























Interactive Weather Map New forecast layout! Learn more

10-Day Weather Forecast

Advertisements
Track Severe Weather on mobile